WAAA/UPG METAR and TAF weather

Enter ICAO airport designator
Station Type Date Time Source
WAAA METAR 2019/10/15 04:00 UTC NOAA

WAAA 150400Z 27011KT 230V330 9999 FEW020 34/17 Q1009 NOSIG


Station Type Date Time Source
WAAA Decoded METAR 2019/10/15 04:00 UTC NOAA

Ujung Pandang / Hasanuddin, Indonesia (WAAA) 05-04S 119-33E 14M
Oct 15, 2019 - 12:00 AM EDT / 2019.10.15 0400 UTC
Wind: from the W (270 degrees) at 13 MPH (11 KT) (direction variable):0
Visibility: greater than 7 mile(s):0
Sky conditions: mostly clear
Temperature: 93 F (34 C)
Dew Point: 62 F (17 C)
Relative Humidity: 36%
Pressure (altimeter): 29.80 in. Hg (1009 hPa)
ob: WAAA 150400Z 27011KT 230V330 9999 FEW020 34/17 Q1009 NOSIG
cycle: 4

Station Type Date Time Source
WAAA TAF 2019/10/14 18:17 UTC NOAA

TAF WAAA 141700Z 1418/1600 13005KT 8000 FEW019
BECMG 1500/1502 30012KT
BECMG 1511/1512 09005KT

Example: see airport list